sensor_id;sensor_type;location;lat;lon;timestamp;P1;durP1;ratioP1;P2;durP2;ratioP2
59856;SDS011;45733;52.668;6.860;2023-09-18T00:02:16;0.50;;;0.50;;
59856;SDS011;45733;52.668;6.860;2023-09-18T00:04:48;0.60;;;0.60;;
59856;SDS011;45733;52.668;6.860;2023-09-18T00:07:17;0.50;;;0.50;;
59856;SDS011;45733;52.668;6.860;2023-09-18T00:09:42;0.50;;;0.50;;
59856;SDS011;45733;52.668;6.860;2023-09-18T00:12:08;0.50;;;0.50;;
59856;SDS011;45733;52.668;6.860;2023-09-18T00:14:35;0.50;;;0.50;;
59856;SDS011;45733;52.668;6.860;2023-09-18T00:17:02;0.50;;;0.50;;
59856;SDS011;45733;52.668;6.860;2023-09-18T00:19:31;0.50;;;0.50;;
59856;SDS011;45733;52.668;6.860;2023-09-18T00:21:59;0.50;;;0.50;;
59856;SDS011;45733;52.668;6.860;2023-09-18T00:24:29;0.50;;;0.50;;
59856;SDS011;45733;52.668;6.860;2023-09-18T00:34:29;0.50;;;0.50;;
59856;SDS011;45733;52.668;6.860;2023-09-18T00:36:56;0.50;;;0.50;;
59856;SDS011;45733;52.668;6.860;2023-09-18T00:39:25;0.50;;;0.50;;
59856;SDS011;45733;52.668;6.860;2023-09-18T00:41:51;0.50;;;0.50;;
59856;SDS011;45733;52.668;6.860;2023-09-18T00:44:22;0.50;;;0.50;;
59856;SDS011;45733;52.668;6.860;2023-09-18T00:46:49;0.50;;;0.50;;
59856;SDS011;45733;52.668;6.860;2023-09-18T00:49:16;0.40;;;0.40;;
59856;SDS011;45733;52.668;6.860;2023-09-18T00:51:44;0.40;;;0.40;;
59856;SDS011;45733;52.668;6.860;2023-09-18T00:54:10;0.45;;;0.45;;
59856;SDS011;45733;52.668;6.860;2023-09-18T00:56:36;0.50;;;0.50;;
59856;SDS011;45733;52.668;6.860;2023-09-18T00:59:02;0.50;;;0.50;;
59856;SDS011;45733;52.668;6.860;2023-09-18T01:01:28;0.50;;;0.50;;
59856;SDS011;45733;52.668;6.860;2023-09-18T01:03:55;0.45;;;0.45;;
59856;SDS011;45733;52.668;6.860;2023-09-18T01:06:25;0.50;;;0.50;;
59856;SDS011;45733;52.668;6.860;2023-09-18T01:08:56;0.40;;;0.40;;
59856;SDS011;45733;52.668;6.860;2023-09-18T01:16:53;0.43;;;0.43;;
59856;SDS011;45733;52.668;6.860;2023-09-18T01:19:42;0.40;;;0.40;;
59856;SDS011;45733;52.668;6.860;2023-09-18T01:22:15;0.40;;;0.40;;
59856;SDS011;45733;52.668;6.860;2023-09-18T01:24:42;0.50;;;0.50;;
59856;SDS011;45733;52.668;6.860;2023-09-18T01:27:10;0.40;;;0.40;;
59856;SDS011;45733;52.668;6.860;2023-09-18T01:29:42;0.40;;;0.40;;
59856;SDS011;45733;52.668;6.860;2023-09-18T01:32:08;0.40;;;0.40;;
59856;SDS011;45733;52.668;6.860;2023-09-18T01:34:38;0.40;;;0.40;;
59856;SDS011;45733;52.668;6.860;2023-09-18T01:37:08;0.40;;;0.40;;
59856;SDS011;45733;52.668;6.860;2023-09-18T01:39:38;0.40;;;0.40;;
59856;SDS011;45733;52.668;6.860;2023-09-18T01:42:06;0.40;;;0.40;;
59856;SDS011;45733;52.668;6.860;2023-09-18T01:44:34;0.40;;;0.40;;
59856;SDS011;45733;52.668;6.860;2023-09-18T01:47:03;0.50;;;0.50;;
59856;SDS011;45733;52.668;6.860;2023-09-18T01:49:37;0.50;;;0.50;;
59856;SDS011;45733;52.668;6.860;2023-09-18T01:52:04;0.50;;;0.50;;
59856;SDS011;45733;52.668;6.860;2023-09-18T01:54:32;0.40;;;0.40;;
59856;SDS011;45733;52.668;6.860;2023-09-18T01:56:58;0.43;;;0.43;;
59856;SDS011;45733;52.668;6.860;2023-09-18T01:59:24;0.50;;;0.50;;
59856;SDS011;45733;52.668;6.860;2023-09-18T02:01:51;0.50;;;0.50;;
59856;SDS011;45733;52.668;6.860;2023-09-18T02:04:17;0.50;;;0.50;;
59856;SDS011;45733;52.668;6.860;2023-09-18T02:06:43;0.50;;;0.50;;
59856;SDS011;45733;52.668;6.860;2023-09-18T02:09:09;0.50;;;0.50;;
59856;SDS011;45733;52.668;6.860;2023-09-18T02:11:39;0.50;;;0.50;;
59856;SDS011;45733;52.668;6.860;2023-09-18T02:14:06;0.50;;;0.50;;
59856;SDS011;45733;52.668;6.860;2023-09-18T02:16:33;0.45;;;0.45;;
59856;SDS011;45733;52.668;6.860;2023-09-18T02:18:59;0.40;;;0.40;;
59856;SDS011;45733;52.668;6.860;2023-09-18T02:21:25;0.50;;;0.50;;
59856;SDS011;45733;52.668;6.860;2023-09-18T02:23:51;0.50;;;0.50;;
59856;SDS011;45733;52.668;6.860;2023-09-18T02:26:18;0.50;;;0.50;;
59856;SDS011;45733;52.668;6.860;2023-09-18T02:28:44;0.50;;;0.50;;
59856;SDS011;45733;52.668;6.860;2023-09-18T02:31:10;0.50;;;0.50;;
59856;SDS011;45733;52.668;6.860;2023-09-18T02:33:36;0.50;;;0.50;;
59856;SDS011;45733;52.668;6.860;2023-09-18T02:36:03;0.50;;;0.50;;
59856;SDS011;45733;52.668;6.860;2023-09-18T02:38:29;0.50;;;0.50;;
59856;SDS011;45733;52.668;6.860;2023-09-18T02:40:57;0.50;;;0.50;;
59856;SDS011;45733;52.668;6.860;2023-09-18T02:43:23;0.50;;;0.50;;
59856;SDS011;45733;52.668;6.860;2023-09-18T02:45:49;0.50;;;0.50;;
59856;SDS011;45733;52.668;6.860;2023-09-18T02:48:15;0.55;;;0.55;;
59856;SDS011;45733;52.668;6.860;2023-09-18T02:50:41;0.50;;;0.50;;
59856;SDS011;45733;52.668;6.860;2023-09-18T02:53:09;0.50;;;0.50;;
59856;SDS011;45733;52.668;6.860;2023-09-18T02:55:43;0.50;;;0.50;;
59856;SDS011;45733;52.668;6.860;2023-09-18T02:58:09;0.50;;;0.50;;
59856;SDS011;45733;52.668;6.860;2023-09-18T03:00:40;0.50;;;0.50;;
59856;SDS011;45733;52.668;6.860;2023-09-18T03:03:07;0.50;;;0.50;;
59856;SDS011;45733;52.668;6.860;2023-09-18T03:05:33;0.60;;;0.60;;
59856;SDS011;45733;52.668;6.860;2023-09-18T03:07:58;0.50;;;0.50;;
59856;SDS011;45733;52.668;6.860;2023-09-18T03:10:24;0.40;;;0.40;;
59856;SDS011;45733;52.668;6.860;2023-09-18T03:12:50;0.50;;;0.50;;
59856;SDS011;45733;52.668;6.860;2023-09-18T03:15:16;0.50;;;0.50;;
59856;SDS011;45733;52.668;6.860;2023-09-18T03:17:41;0.50;;;0.50;;
59856;SDS011;45733;52.668;6.860;2023-09-18T03:20:08;0.50;;;0.50;;
59856;SDS011;45733;52.668;6.860;2023-09-18T03:22:34;0.50;;;0.50;;
59856;SDS011;45733;52.668;6.860;2023-09-18T03:25:00;0.50;;;0.50;;
59856;SDS011;45733;52.668;6.860;2023-09-18T03:27:26;0.50;;;0.50;;
59856;SDS011;45733;52.668;6.860;2023-09-18T03:29:59;0.50;;;0.50;;
59856;SDS011;45733;52.668;6.860;2023-09-18T03:32:25;0.60;;;0.60;;
59856;SDS011;45733;52.668;6.860;2023-09-18T03:34:51;0.50;;;0.50;;
59856;SDS011;45733;52.668;6.860;2023-09-18T03:37:17;0.50;;;0.50;;
59856;SDS011;45733;52.668;6.860;2023-09-18T03:39:46;0.50;;;0.50;;
59856;SDS011;45733;52.668;6.860;2023-09-18T03:42:12;0.57;;;0.57;;
59856;SDS011;45733;52.668;6.860;2023-09-18T03:44:37;0.60;;;0.60;;
59856;SDS011;45733;52.668;6.860;2023-09-18T03:47:06;0.50;;;0.50;;
59856;SDS011;45733;52.668;6.860;2023-09-18T03:49:32;0.50;;;0.50;;
59856;SDS011;45733;52.668;6.860;2023-09-18T03:52:01;0.60;;;0.60;;
59856;SDS011;45733;52.668;6.860;2023-09-18T03:54:29;0.57;;;0.57;;
59856;SDS011;45733;52.668;6.860;2023-09-18T03:56:58;0.50;;;0.50;;
59856;SDS011;45733;52.668;6.860;2023-09-18T03:59:31;0.60;;;0.60;;
59856;SDS011;45733;52.668;6.860;2023-09-18T04:01:59;0.70;;;0.70;;
59856;SDS011;45733;52.668;6.860;2023-09-18T04:04:31;0.50;;;0.50;;
59856;SDS011;45733;52.668;6.860;2023-09-18T04:06:57;0.50;;;0.50;;
59856;SDS011;45733;52.668;6.860;2023-09-18T04:09:23;0.50;;;0.50;;
59856;SDS011;45733;52.668;6.860;2023-09-18T04:11:49;0.50;;;0.50;;
59856;SDS011;45733;52.668;6.860;2023-09-18T04:14:17;0.52;;;0.52;;
59856;SDS011;45733;52.668;6.860;2023-09-18T04:16:45;0.57;;;0.57;;
59856;SDS011;45733;52.668;6.860;2023-09-18T04:19:14;0.50;;;0.50;;
59856;SDS011;45733;52.668;6.860;2023-09-18T04:24:12;0.60;;;0.60;;
59856;SDS011;45733;52.668;6.860;2023-09-18T04:26:40;0.60;;;0.60;;
59856;SDS011;45733;52.668;6.860;2023-09-18T04:29:06;0.50;;;0.50;;
59856;SDS011;45733;52.668;6.860;2023-09-18T04:31:37;0.50;;;0.50;;
59856;SDS011;45733;52.668;6.860;2023-09-18T04:34:05;0.50;;;0.50;;
59856;SDS011;45733;52.668;6.860;2023-09-18T04:36:31;0.60;;;0.60;;
59856;SDS011;45733;52.668;6.860;2023-09-18T04:38:57;0.60;;;0.60;;
59856;SDS011;45733;52.668;6.860;2023-09-18T04:41:23;0.60;;;0.60;;
59856;SDS011;45733;52.668;6.860;2023-09-18T04:43:49;0.57;;;0.57;;
59856;SDS011;45733;52.668;6.860;2023-09-18T04:46:16;0.50;;;0.50;;
59856;SDS011;45733;52.668;6.860;2023-09-18T04:48:41;0.52;;;0.52;;
59856;SDS011;45733;52.668;6.860;2023-09-18T04:51:07;0.57;;;0.57;;
59856;SDS011;45733;52.668;6.860;2023-09-18T04:53:33;0.60;;;0.60;;
59856;SDS011;45733;52.668;6.860;2023-09-18T04:55:58;0.60;;;0.60;;
59856;SDS011;45733;52.668;6.860;2023-09-18T04:58:25;0.60;;;0.60;;
59856;SDS011;45733;52.668;6.860;2023-09-18T05:00:58;0.60;;;0.60;;
59856;SDS011;45733;52.668;6.860;2023-09-18T05:05:54;0.60;;;0.60;;
59856;SDS011;45733;52.668;6.860;2023-09-18T05:08:20;0.50;;;0.50;;
59856;SDS011;45733;52.668;6.860;2023-09-18T05:10:45;0.50;;;0.50;;
59856;SDS011;45733;52.668;6.860;2023-09-18T05:13:12;0.52;;;0.52;;
59856;SDS011;45733;52.668;6.860;2023-09-18T05:15:38;0.60;;;0.60;;
59856;SDS011;45733;52.668;6.860;2023-09-18T05:18:05;0.60;;;0.60;;
59856;SDS011;45733;52.668;6.860;2023-09-18T05:20:34;0.57;;;0.57;;
59856;SDS011;45733;52.668;6.860;2023-09-18T05:23:00;0.68;;;0.68;;
59856;SDS011;45733;52.668;6.860;2023-09-18T05:25:29;0.60;;;0.60;;
59856;SDS011;45733;52.668;6.860;2023-09-18T05:27:58;0.60;;;0.60;;
59856;SDS011;45733;52.668;6.860;2023-09-18T05:30:29;0.50;;;0.50;;
59856;SDS011;45733;52.668;6.860;2023-09-18T05:33:06;0.60;;;0.60;;
59856;SDS011;45733;52.668;6.860;2023-09-18T05:35:39;0.50;;;0.50;;
59856;SDS011;45733;52.668;6.860;2023-09-18T05:38:07;0.60;;;0.60;;
59856;SDS011;45733;52.668;6.860;2023-09-18T05:40:33;0.60;;;0.60;;
59856;SDS011;45733;52.668;6.860;2023-09-18T05:42:59;0.60;;;0.60;;
59856;SDS011;45733;52.668;6.860;2023-09-18T05:45:25;0.60;;;0.60;;
59856;SDS011;45733;52.668;6.860;2023-09-18T05:47:52;0.60;;;0.60;;
59856;SDS011;45733;52.668;6.860;2023-09-18T05:50:30;0.60;;;0.60;;
59856;SDS011;45733;52.668;6.860;2023-09-18T05:52:57;0.60;;;0.60;;
59856;SDS011;45733;52.668;6.860;2023-09-18T05:55:31;0.60;;;0.60;;
59856;SDS011;45733;52.668;6.860;2023-09-18T05:57:57;0.60;;;0.60;;
59856;SDS011;45733;52.668;6.860;2023-09-18T06:00:24;0.60;;;0.60;;
59856;SDS011;45733;52.668;6.860;2023-09-18T06:02:50;0.60;;;0.60;;
59856;SDS011;45733;52.668;6.860;2023-09-18T06:05:18;0.70;;;0.70;;
59856;SDS011;45733;52.668;6.860;2023-09-18T06:07:50;0.60;;;0.60;;
59856;SDS011;45733;52.668;6.860;2023-09-18T06:10:16;0.70;;;0.70;;
59856;SDS011;45733;52.668;6.860;2023-09-18T06:12:46;0.70;;;0.70;;
59856;SDS011;45733;52.668;6.860;2023-09-18T06:15:11;0.70;;;0.70;;
59856;SDS011;45733;52.668;6.860;2023-09-18T06:17:46;0.80;;;0.80;;
59856;SDS011;45733;52.668;6.860;2023-09-18T06:20:12;0.70;;;0.70;;
59856;SDS011;45733;52.668;6.860;2023-09-18T06:22:38;0.70;;;0.70;;
59856;SDS011;45733;52.668;6.860;2023-09-18T06:25:08;0.70;;;0.70;;
59856;SDS011;45733;52.668;6.860;2023-09-18T06:27:37;0.73;;;0.73;;
59856;SDS011;45733;52.668;6.860;2023-09-18T06:30:06;0.80;;;0.80;;
59856;SDS011;45733;52.668;6.860;2023-09-18T06:32:33;0.80;;;0.80;;
59856;SDS011;45733;52.668;6.860;2023-09-18T06:34:59;0.80;;;0.80;;
59856;SDS011;45733;52.668;6.860;2023-09-18T06:37:25;0.80;;;0.80;;
59856;SDS011;45733;52.668;6.860;2023-09-18T06:39:54;0.82;;;0.82;;
59856;SDS011;45733;52.668;6.860;2023-09-18T06:42:21;0.80;;;0.80;;
59856;SDS011;45733;52.668;6.860;2023-09-18T06:44:50;1.00;;;1.00;;
59856;SDS011;45733;52.668;6.860;2023-09-18T06:47:16;0.80;;;0.80;;
59856;SDS011;45733;52.668;6.860;2023-09-18T06:49:41;0.90;;;0.90;;
59856;SDS011;45733;52.668;6.860;2023-09-18T06:52:08;0.80;;;0.80;;
59856;SDS011;45733;52.668;6.860;2023-09-18T06:54:34;1.00;;;1.00;;
59856;SDS011;45733;52.668;6.860;2023-09-18T06:57:04;0.90;;;0.90;;
59856;SDS011;45733;52.668;6.860;2023-09-18T06:59:30;0.90;;;0.90;;
59856;SDS011;45733;52.668;6.860;2023-09-18T07:01:58;1.02;;;1.02;;
59856;SDS011;45733;52.668;6.860;2023-09-18T07:04:27;1.00;;;1.00;;
59856;SDS011;45733;52.668;6.860;2023-09-18T07:06:53;0.90;;;0.90;;
59856;SDS011;45733;52.668;6.860;2023-09-18T07:09:19;1.02;;;1.02;;
59856;SDS011;45733;52.668;6.860;2023-09-18T07:11:48;0.80;;;0.80;;
59856;SDS011;45733;52.668;6.860;2023-09-18T07:14:14;0.90;;;0.90;;
59856;SDS011;45733;52.668;6.860;2023-09-18T07:16:40;1.00;;;1.00;;
59856;SDS011;45733;52.668;6.860;2023-09-18T07:19:05;1.00;;;1.00;;
59856;SDS011;45733;52.668;6.860;2023-09-18T07:21:32;0.90;;;0.90;;
59856;SDS011;45733;52.668;6.860;2023-09-18T07:23:59;1.00;;;1.00;;
59856;SDS011;45733;52.668;6.860;2023-09-18T07:26:25;1.00;;;1.00;;
59856;SDS011;45733;52.668;6.860;2023-09-18T07:28:51;0.95;;;0.95;;
59856;SDS011;45733;52.668;6.860;2023-09-18T07:31:17;0.90;;;0.90;;
59856;SDS011;45733;52.668;6.860;2023-09-18T07:33:42;0.93;;;0.93;;
59856;SDS011;45733;52.668;6.860;2023-09-18T07:36:08;0.93;;;0.93;;
59856;SDS011;45733;52.668;6.860;2023-09-18T07:38:38;1.02;;;1.02;;
59856;SDS011;45733;52.668;6.860;2023-09-18T07:41:13;1.10;;;1.10;;
59856;SDS011;45733;52.668;6.860;2023-09-18T07:43:40;1.10;;;1.10;;
59856;SDS011;45733;52.668;6.860;2023-09-18T07:46:06;1.10;;;1.10;;
59856;SDS011;45733;52.668;6.860;2023-09-18T07:48:32;1.20;;;1.20;;
59856;SDS011;45733;52.668;6.860;2023-09-18T07:50:59;1.50;;;1.40;;
59856;SDS011;45733;52.668;6.860;2023-09-18T07:53:24;1.20;;;1.20;;
59856;SDS011;45733;52.668;6.860;2023-09-18T07:59:25;1.20;;;1.20;;
59856;SDS011;45733;52.668;6.860;2023-09-18T08:01:54;1.30;;;1.30;;
59856;SDS011;45733;52.668;6.860;2023-09-18T08:04:20;1.30;;;1.30;;
59856;SDS011;45733;52.668;6.860;2023-09-18T08:06:48;1.30;;;1.30;;
59856;SDS011;45733;52.668;6.860;2023-09-18T08:09:14;1.27;;;1.27;;
59856;SDS011;45733;52.668;6.860;2023-09-18T08:11:40;1.30;;;1.30;;
59856;SDS011;45733;52.668;6.860;2023-09-18T08:14:08;1.30;;;1.30;;
59856;SDS011;45733;52.668;6.860;2023-09-18T08:16:34;1.52;;;1.42;;
59856;SDS011;45733;52.668;6.860;2023-09-18T08:19:05;1.60;;;1.50;;
59856;SDS011;45733;52.668;6.860;2023-09-18T08:21:32;1.30;;;1.30;;
59856;SDS011;45733;52.668;6.860;2023-09-18T08:23:57;1.67;;;1.58;;
59856;SDS011;45733;52.668;6.860;2023-09-18T08:26:24;1.52;;;1.42;;
59856;SDS011;45733;52.668;6.860;2023-09-18T08:28:51;1.55;;;1.45;;
59856;SDS011;45733;52.668;6.860;2023-09-18T08:31:18;1.30;;;1.30;;
59856;SDS011;45733;52.668;6.860;2023-09-18T08:33:43;1.27;;;1.27;;
59856;SDS011;45733;52.668;6.860;2023-09-18T08:36:09;1.25;;;1.25;;
59856;SDS011;45733;52.668;6.860;2023-09-18T08:38:37;1.35;;;1.35;;
59856;SDS011;45733;52.668;6.860;2023-09-18T08:41:08;1.20;;;1.20;;
59856;SDS011;45733;52.668;6.860;2023-09-18T08:43:35;1.00;;;1.00;;
59856;SDS011;45733;52.668;6.860;2023-09-18T08:46:05;1.08;;;1.08;;
59856;SDS011;45733;52.668;6.860;2023-09-18T08:48:31;1.00;;;1.00;;
59856;SDS011;45733;52.668;6.860;2023-09-18T08:51:05;1.00;;;1.00;;
59856;SDS011;45733;52.668;6.860;2023-09-18T08:53:31;1.10;;;1.10;;
59856;SDS011;45733;52.668;6.860;2023-09-18T08:55:58;1.20;;;1.20;;
59856;SDS011;45733;52.668;6.860;2023-09-18T08:58:36;1.05;;;1.05;;
59856;SDS011;45733;52.668;6.860;2023-09-18T09:01:05;1.10;;;1.10;;
59856;SDS011;45733;52.668;6.860;2023-09-18T09:03:35;0.98;;;0.98;;
59856;SDS011;45733;52.668;6.860;2023-09-18T09:06:02;0.95;;;0.95;;
59856;SDS011;45733;52.668;6.860;2023-09-18T09:08:31;1.05;;;1.05;;
59856;SDS011;45733;52.668;6.860;2023-09-18T09:10:56;1.02;;;1.02;;
59856;SDS011;45733;52.668;6.860;2023-09-18T09:13:25;1.02;;;1.02;;
59856;SDS011;45733;52.668;6.860;2023-09-18T09:15:52;1.20;;;1.20;;
59856;SDS011;45733;52.668;6.860;2023-09-18T09:18:20;1.10;;;1.10;;
59856;SDS011;45733;52.668;6.860;2023-09-18T09:21:02;0.95;;;0.95;;
59856;SDS011;45733;52.668;6.860;2023-09-18T09:23:45;1.00;;;1.00;;
59856;SDS011;45733;52.668;6.860;2023-09-18T09:26:19;1.00;;;1.00;;
59856;SDS011;45733;52.668;6.860;2023-09-18T09:28:47;0.93;;;0.93;;
59856;SDS011;45733;52.668;6.860;2023-09-18T09:31:27;1.00;;;1.00;;
59856;SDS011;45733;52.668;6.860;2023-09-18T09:33:54;1.10;;;1.10;;
59856;SDS011;45733;52.668;6.860;2023-09-18T09:36:24;1.00;;;1.00;;
59856;SDS011;45733;52.668;6.860;2023-09-18T09:38:54;0.90;;;0.90;;
59856;SDS011;45733;52.668;6.860;2023-09-18T09:41:22;0.98;;;0.98;;
59856;SDS011;45733;52.668;6.860;2023-09-18T09:43:48;0.90;;;0.90;;
59856;SDS011;45733;52.668;6.860;2023-09-18T09:46:16;0.90;;;0.90;;
59856;SDS011;45733;52.668;6.860;2023-09-18T09:48:58;0.90;;;0.90;;
59856;SDS011;45733;52.668;6.860;2023-09-18T09:51:28;0.90;;;0.90;;
59856;SDS011;45733;52.668;6.860;2023-09-18T09:53:54;0.82;;;0.82;;
59856;SDS011;45733;52.668;6.860;2023-09-18T09:56:21;0.90;;;0.90;;
59856;SDS011;45733;52.668;6.860;2023-09-18T09:59:00;1.00;;;1.00;;
59856;SDS011;45733;52.668;6.860;2023-09-18T10:01:33;0.90;;;0.90;;
59856;SDS011;45733;52.668;6.860;2023-09-18T10:04:00;0.90;;;0.90;;
59856;SDS011;45733;52.668;6.860;2023-09-18T10:06:35;1.00;;;1.00;;
59856;SDS011;45733;52.668;6.860;2023-09-18T10:09:02;1.00;;;1.00;;
59856;SDS011;45733;52.668;6.860;2023-09-18T10:11:33;0.95;;;0.95;;
59856;SDS011;45733;52.668;6.860;2023-09-18T10:14:04;1.00;;;1.00;;
59856;SDS011;45733;52.668;6.860;2023-09-18T10:16:39;0.90;;;0.90;;
59856;SDS011;45733;52.668;6.860;2023-09-18T10:19:27;0.90;;;0.90;;
59856;SDS011;45733;52.668;6.860;2023-09-18T10:22:11;0.90;;;0.90;;
59856;SDS011;45733;52.668;6.860;2023-09-18T10:24:53;1.00;;;1.00;;
59856;SDS011;45733;52.668;6.860;2023-09-18T10:27:25;0.90;;;0.90;;
59856;SDS011;45733;52.668;6.860;2023-09-18T10:29:53;0.80;;;0.80;;
59856;SDS011;45733;52.668;6.860;2023-09-18T10:32:19;0.80;;;0.80;;
59856;SDS011;45733;52.668;6.860;2023-09-18T10:34:47;0.85;;;0.85;;
59856;SDS011;45733;52.668;6.860;2023-09-18T10:37:14;0.77;;;0.77;;
59856;SDS011;45733;52.668;6.860;2023-09-18T10:40:01;0.70;;;0.70;;
59856;SDS011;45733;52.668;6.860;2023-09-18T10:42:29;0.70;;;0.70;;
59856;SDS011;45733;52.668;6.860;2023-09-18T10:44:56;0.82;;;0.82;;
59856;SDS011;45733;52.668;6.860;2023-09-18T10:47:22;0.75;;;0.75;;
59856;SDS011;45733;52.668;6.860;2023-09-18T10:49:48;0.80;;;0.80;;
59856;SDS011;45733;52.668;6.860;2023-09-18T10:52:15;0.50;;;0.50;;
59856;SDS011;45733;52.668;6.860;2023-09-18T10:54:44;0.80;;;0.80;;
59856;SDS011;45733;52.668;6.860;2023-09-18T10:57:10;0.80;;;0.80;;
59856;SDS011;45733;52.668;6.860;2023-09-18T10:59:43;0.80;;;0.80;;
59856;SDS011;45733;52.668;6.860;2023-09-18T11:04:42;0.68;;;0.68;;
59856;SDS011;45733;52.668;6.860;2023-09-18T11:07:09;0.82;;;0.82;;
59856;SDS011;45733;52.668;6.860;2023-09-18T11:09:48;0.60;;;0.60;;
59856;SDS011;45733;52.668;6.860;2023-09-18T11:12:17;0.30;;;0.30;;
59856;SDS011;45733;52.668;6.860;2023-09-18T11:14:55;0.93;;;0.93;;
59856;SDS011;45733;52.668;6.860;2023-09-18T11:17:32;0.30;;;0.30;;
59856;SDS011;45733;52.668;6.860;2023-09-18T11:22:45;0.30;;;0.30;;
59856;SDS011;45733;52.668;6.860;2023-09-18T11:28:00;0.30;;;0.30;;
59856;SDS011;45733;52.668;6.860;2023-09-18T11:30:27;0.90;;;0.90;;
59856;SDS011;45733;52.668;6.860;2023-09-18T11:33:01;0.30;;;0.30;;
59856;SDS011;45733;52.668;6.860;2023-09-18T11:35:34;1.00;;;1.00;;
59856;SDS011;45733;52.668;6.860;2023-09-18T11:38:08;0.40;;;0.40;;
59856;SDS011;45733;52.668;6.860;2023-09-18T11:40:36;1.00;;;1.00;;
59856;SDS011;45733;52.668;6.860;2023-09-18T11:46:08;1.20;;;1.20;;
59856;SDS011;45733;52.668;6.860;2023-09-18T11:48:38;0.35;;;0.35;;
59856;SDS011;45733;52.668;6.860;2023-09-18T11:51:13;0.30;;;0.30;;
59856;SDS011;45733;52.668;6.860;2023-09-18T11:53:42;0.80;;;0.80;;
59856;SDS011;45733;52.668;6.860;2023-09-18T11:56:16;0.30;;;0.30;;
59856;SDS011;45733;52.668;6.860;2023-09-18T11:58:46;0.30;;;0.30;;
59856;SDS011;45733;52.668;6.860;2023-09-18T12:01:13;0.30;;;0.30;;
59856;SDS011;45733;52.668;6.860;2023-09-18T12:03:40;0.30;;;0.30;;
59856;SDS011;45733;52.668;6.860;2023-09-18T12:06:07;0.30;;;0.30;;
59856;SDS011;45733;52.668;6.860;2023-09-18T12:08:38;0.30;;;0.30;;
59856;SDS011;45733;52.668;6.860;2023-09-18T12:11:05;0.30;;;0.30;;
59856;SDS011;45733;52.668;6.860;2023-09-18T12:13:31;0.30;;;0.30;;
59856;SDS011;45733;52.668;6.860;2023-09-18T12:16:18;0.30;;;0.30;;
59856;SDS011;45733;52.668;6.860;2023-09-18T12:18:47;0.30;;;0.30;;
59856;SDS011;45733;52.668;6.860;2023-09-18T12:21:19;0.30;;;0.30;;
59856;SDS011;45733;52.668;6.860;2023-09-18T12:23:45;0.30;;;0.30;;
59856;SDS011;45733;52.668;6.860;2023-09-18T12:26:12;0.35;;;0.35;;
59856;SDS011;45733;52.668;6.860;2023-09-18T12:28:42;0.60;;;0.60;;
59856;SDS011;45733;52.668;6.860;2023-09-18T12:31:14;0.30;;;0.30;;
59856;SDS011;45733;52.668;6.860;2023-09-18T12:33:41;0.40;;;0.40;;
59856;SDS011;45733;52.668;6.860;2023-09-18T12:36:12;0.30;;;0.30;;
59856;SDS011;45733;52.668;6.860;2023-09-18T12:38:44;0.30;;;0.30;;
59856;SDS011;45733;52.668;6.860;2023-09-18T12:41:20;0.30;;;0.30;;
59856;SDS011;45733;52.668;6.860;2023-09-18T12:43:46;0.30;;;0.30;;
59856;SDS011;45733;52.668;6.860;2023-09-18T12:46:12;0.30;;;0.30;;
59856;SDS011;45733;52.668;6.860;2023-09-18T12:48:38;0.30;;;0.30;;
59856;SDS011;45733;52.668;6.860;2023-09-18T12:51:10;0.30;;;0.30;;
59856;SDS011;45733;52.668;6.860;2023-09-18T12:53:58;0.30;;;0.30;;
59856;SDS011;45733;52.668;6.860;2023-09-18T12:56:25;0.30;;;0.30;;
59856;SDS011;45733;52.668;6.860;2023-09-18T12:58:56;0.30;;;0.30;;
59856;SDS011;45733;52.668;6.860;2023-09-18T13:01:23;0.30;;;0.30;;
59856;SDS011;45733;52.668;6.860;2023-09-18T13:03:49;0.30;;;0.30;;
59856;SDS011;45733;52.668;6.860;2023-09-18T13:06:18;0.30;;;0.30;;
59856;SDS011;45733;52.668;6.860;2023-09-18T13:08:45;0.30;;;0.30;;
59856;SDS011;45733;52.668;6.860;2023-09-18T13:11:12;0.30;;;0.30;;
59856;SDS011;45733;52.668;6.860;2023-09-18T13:13:44;0.30;;;0.30;;
59856;SDS011;45733;52.668;6.860;2023-09-18T13:16:22;0.38;;;0.38;;
59856;SDS011;45733;52.668;6.860;2023-09-18T13:18:50;0.30;;;0.30;;
59856;SDS011;45733;52.668;6.860;2023-09-18T13:21:20;0.60;;;0.60;;
59856;SDS011;45733;52.668;6.860;2023-09-18T13:23:45;0.80;;;0.80;;
59856;SDS011;45733;52.668;6.860;2023-09-18T13:26:11;0.70;;;0.70;;
59856;SDS011;45733;52.668;6.860;2023-09-18T13:28:37;0.70;;;0.70;;
59856;SDS011;45733;52.668;6.860;2023-09-18T13:31:11;0.30;;;0.30;;
59856;SDS011;45733;52.668;6.860;2023-09-18T13:33:39;0.90;;;0.90;;
59856;SDS011;45733;52.668;6.860;2023-09-18T13:36:05;0.90;;;0.90;;
59856;SDS011;45733;52.668;6.860;2023-09-18T13:38:37;0.40;;;0.40;;
59856;SDS011;45733;52.668;6.860;2023-09-18T13:41:02;0.90;;;0.90;;
59856;SDS011;45733;52.668;6.860;2023-09-18T13:43:30;0.80;;;0.80;;
59856;SDS011;45733;52.668;6.860;2023-09-18T13:45:59;0.30;;;0.30;;
59856;SDS011;45733;52.668;6.860;2023-09-18T13:48:28;0.70;;;0.70;;
59856;SDS011;45733;52.668;6.860;2023-09-18T13:50:54;0.30;;;0.30;;
59856;SDS011;45733;52.668;6.860;2023-09-18T13:53:29;0.30;;;0.30;;
59856;SDS011;45733;52.668;6.860;2023-09-18T13:55:58;0.30;;;0.30;;
59856;SDS011;45733;52.668;6.860;2023-09-18T13:58:24;0.50;;;0.50;;
59856;SDS011;45733;52.668;6.860;2023-09-18T14:00:49;0.30;;;0.30;;
59856;SDS011;45733;52.668;6.860;2023-09-18T14:03:15;0.30;;;0.30;;
59856;SDS011;45733;52.668;6.860;2023-09-18T14:06:02;0.30;;;0.30;;
59856;SDS011;45733;52.668;6.860;2023-09-18T14:08:30;0.30;;;0.30;;
59856;SDS011;45733;52.668;6.860;2023-09-18T14:10:55;0.32;;;0.32;;
59856;SDS011;45733;52.668;6.860;2023-09-18T14:13:21;0.40;;;0.40;;
59856;SDS011;45733;52.668;6.860;2023-09-18T14:15:47;0.30;;;0.30;;
59856;SDS011;45733;52.668;6.860;2023-09-18T14:18:12;0.30;;;0.30;;
59856;SDS011;45733;52.668;6.860;2023-09-18T14:20:41;0.30;;;0.30;;
59856;SDS011;45733;52.668;6.860;2023-09-18T14:23:07;0.40;;;0.40;;
59856;SDS011;45733;52.668;6.860;2023-09-18T14:25:32;0.35;;;0.35;;
59856;SDS011;45733;52.668;6.860;2023-09-18T14:28:01;0.30;;;0.30;;
59856;SDS011;45733;52.668;6.860;2023-09-18T14:30:27;0.30;;;0.30;;
59856;SDS011;45733;52.668;6.860;2023-09-18T14:32:56;0.70;;;0.70;;
59856;SDS011;45733;52.668;6.860;2023-09-18T14:35:28;0.30;;;0.30;;
59856;SDS011;45733;52.668;6.860;2023-09-18T14:37:54;0.60;;;0.60;;
59856;SDS011;45733;52.668;6.860;2023-09-18T14:40:24;0.38;;;0.38;;
59856;SDS011;45733;52.668;6.860;2023-09-18T14:42:49;0.60;;;0.60;;
59856;SDS011;45733;52.668;6.860;2023-09-18T14:45:15;0.60;;;0.60;;
59856;SDS011;45733;52.668;6.860;2023-09-18T14:47:41;0.60;;;0.60;;
59856;SDS011;45733;52.668;6.860;2023-09-18T14:50:07;0.32;;;0.32;;
59856;SDS011;45733;52.668;6.860;2023-09-18T14:52:33;0.40;;;0.40;;
59856;SDS011;45733;52.668;6.860;2023-09-18T14:54:59;0.60;;;0.60;;
59856;SDS011;45733;52.668;6.860;2023-09-18T14:57:25;0.40;;;0.40;;
59856;SDS011;45733;52.668;6.860;2023-09-18T14:59:52;0.60;;;0.60;;
59856;SDS011;45733;52.668;6.860;2023-09-18T15:02:18;0.32;;;0.32;;
59856;SDS011;45733;52.668;6.860;2023-09-18T15:04:44;0.60;;;0.60;;
59856;SDS011;45733;52.668;6.860;2023-09-18T15:07:10;0.32;;;0.32;;
59856;SDS011;45733;52.668;6.860;2023-09-18T15:09:38;0.70;;;0.70;;
59856;SDS011;45733;52.668;6.860;2023-09-18T15:12:04;0.30;;;0.30;;
59856;SDS011;45733;52.668;6.860;2023-09-18T15:14:34;0.30;;;0.30;;
59856;SDS011;45733;52.668;6.860;2023-09-18T15:17:00;0.30;;;0.30;;
59856;SDS011;45733;52.668;6.860;2023-09-18T15:19:26;0.40;;;0.40;;
59856;SDS011;45733;52.668;6.860;2023-09-18T15:21:52;0.60;;;0.60;;
59856;SDS011;45733;52.668;6.860;2023-09-18T15:24:20;0.65;;;0.65;;
59856;SDS011;45733;52.668;6.860;2023-09-18T15:26:48;0.30;;;0.30;;
59856;SDS011;45733;52.668;6.860;2023-09-18T15:29:14;0.70;;;0.70;;